sensor_id;sensor_type;location;lat;lon;timestamp;pressure;altitude;pressure_sealevel;temperature;humidity
28008;BME280;15333;50.010;20.020;2023-03-26T00:02:43;97828.63;;;7.88;71.83
28008;BME280;15333;50.010;20.020;2023-03-26T00:05:45;97837.09;;;7.93;71.82
28008;BME280;15333;50.010;20.020;2023-03-26T00:08:49;97842.03;;;7.97;71.81
28008;BME280;15333;50.010;20.020;2023-03-26T00:11:50;97839.16;;;8.00;71.77
28008;BME280;15333;50.010;20.020;2023-03-26T00:14:51;97830.66;;;8.06;71.19
28008;BME280;15333;50.010;20.020;2023-03-26T00:17:52;97833.09;;;8.09;71.16
28008;BME280;15333;50.010;20.020;2023-03-26T00:20:53;97831.38;;;8.08;72.20
28008;BME280;15333;50.010;20.020;2023-03-26T00:23:56;97840.84;;;8.01;72.57
28008;BME280;15333;50.010;20.020;2023-03-26T00:26:59;97822.66;;;8.06;73.67
28008;BME280;15333;50.010;20.020;2023-03-26T00:30:00;97825.22;;;8.08;73.18
28008;BME280;15333;50.010;20.020;2023-03-26T00:33:03;97819.75;;;8.09;73.86
28008;BME280;15333;50.010;20.020;2023-03-26T00:36:09;97812.25;;;8.03;74.62
28008;BME280;15333;50.010;20.020;2023-03-26T00:39:11;97820.50;;;7.89;75.63
28008;BME280;15333;50.010;20.020;2023-03-26T00:42:13;97824.16;;;7.88;76.70
28008;BME280;15333;50.010;20.020;2023-03-26T00:45:15;97811.44;;;7.80;76.37
28008;BME280;15333;50.010;20.020;2023-03-26T00:48:17;97810.84;;;7.77;76.97
28008;BME280;15333;50.010;20.020;2023-03-26T00:51:19;97807.69;;;7.72;76.96
28008;BME280;15333;50.010;20.020;2023-03-26T00:54:21;97799.94;;;7.69;76.88
28008;BME280;15333;50.010;20.020;2023-03-26T00:57:21;97802.97;;;7.64;77.37
28008;BME280;15333;50.010;20.020;2023-03-26T01:00:30;97803.44;;;7.69;77.45
28008;BME280;15333;50.010;20.020;2023-03-26T01:03:35;97797.78;;;7.74;76.86
28008;BME280;15333;50.010;20.020;2023-03-26T01:06:38;97791.22;;;7.78;76.30
28008;BME280;15333;50.010;20.020;2023-03-26T01:09:44;97792.44;;;7.85;76.14
28008;BME280;15333;50.010;20.020;2023-03-26T01:12:50;97795.81;;;7.87;75.54
28008;BME280;15333;50.010;20.020;2023-03-26T01:15:50;97792.31;;;7.86;75.67
28008;BME280;15333;50.010;20.020;2023-03-26T01:18:52;97798.94;;;7.92;75.39
28008;BME280;15333;50.010;20.020;2023-03-26T01:21:54;97791.19;;;8.00;74.86
28008;BME280;15333;50.010;20.020;2023-03-26T01:24:55;97803.53;;;8.01;74.19
28008;BME280;15333;50.010;20.020;2023-03-26T01:27:56;97799.53;;;8.07;74.51
28008;BME280;15333;50.010;20.020;2023-03-26T01:31:12;97794.78;;;8.21;73.35
28008;BME280;15333;50.010;20.020;2023-03-26T01:34:23;97796.38;;;8.13;73.59
28008;BME280;15333;50.010;20.020;2023-03-26T01:37:49;97805.56;;;8.20;72.97
28008;BME280;15333;50.010;20.020;2023-03-26T01:41:06;97804.69;;;8.19;72.75
28008;BME280;15333;50.010;20.020;2023-03-26T01:44:22;97821.16;;;8.24;73.41
28008;BME280;15333;50.010;20.020;2023-03-26T01:47:26;97821.97;;;7.71;79.07
28008;BME280;15333;50.010;20.020;2023-03-26T01:50:28;97804.53;;;7.22;87.70
28008;BME280;15333;50.010;20.020;2023-03-26T01:53:29;97791.03;;;6.79;95.76
28008;BME280;15333;50.010;20.020;2023-03-26T02:06:45;97777.97;;;6.41;100.00
28008;BME280;15333;50.010;20.020;2023-03-26T02:09:49;97783.00;;;6.33;100.00
28008;BME280;15333;50.010;20.020;2023-03-26T02:12:50;97786.53;;;6.34;100.00
28008;BME280;15333;50.010;20.020;2023-03-26T02:16:03;97774.19;;;6.33;100.00
28008;BME280;15333;50.010;20.020;2023-03-26T02:19:05;97769.72;;;6.33;100.00
28008;BME280;15333;50.010;20.020;2023-03-26T02:22:15;97766.81;;;6.25;100.00
28008;BME280;15333;50.010;20.020;2023-03-26T02:25:19;97765.69;;;6.16;100.00
28008;BME280;15333;50.010;20.020;2023-03-26T02:28:22;97775.47;;;6.16;100.00
28008;BME280;15333;50.010;20.020;2023-03-26T02:31:23;97773.56;;;6.18;100.00
28008;BME280;15333;50.010;20.020;2023-03-26T02:34:27;97777.88;;;6.19;100.00
28008;BME280;15333;50.010;20.020;2023-03-26T02:37:28;97774.34;;;6.31;100.00
28008;BME280;15333;50.010;20.020;2023-03-26T02:40:38;97774.78;;;6.25;100.00
28008;BME280;15333;50.010;20.020;2023-03-26T02:43:39;97765.84;;;6.26;100.00
28008;BME280;15333;50.010;20.020;2023-03-26T02:46:44;97764.78;;;6.28;100.00
28008;BME280;15333;50.010;20.020;2023-03-26T02:50:05;97771.69;;;6.31;100.00
28008;BME280;15333;50.010;20.020;2023-03-26T02:53:24;97781.78;;;6.26;100.00
28008;BME280;15333;50.010;20.020;2023-03-26T02:56:48;97771.88;;;6.28;100.00
28008;BME280;15333;50.010;20.020;2023-03-26T03:00:01;97781.09;;;6.35;100.00
28008;BME280;15333;50.010;20.020;2023-03-26T03:03:14;97767.41;;;6.52;100.00
28008;BME280;15333;50.010;20.020;2023-03-26T03:06:39;97778.03;;;6.52;100.00
28008;BME280;15333;50.010;20.020;2023-03-26T03:09:40;97767.47;;;6.75;100.00
28008;BME280;15333;50.010;20.020;2023-03-26T03:13:13;97771.09;;;6.74;100.00
28008;BME280;15333;50.010;20.020;2023-03-26T03:16:15;97766.53;;;6.87;99.27
28008;BME280;15333;50.010;20.020;2023-03-26T03:19:17;97773.66;;;6.86;97.94
28008;BME280;15333;50.010;20.020;2023-03-26T03:22:18;97761.47;;;6.95;96.74
28008;BME280;15333;50.010;20.020;2023-03-26T03:25:22;97761.09;;;6.99;95.56
28008;BME280;15333;50.010;20.020;2023-03-26T03:28:25;97768.72;;;7.04;94.94
28008;BME280;15333;50.010;20.020;2023-03-26T03:31:26;97771.03;;;7.08;93.11
28008;BME280;15333;50.010;20.020;2023-03-26T03:34:33;97765.81;;;7.18;91.64
28008;BME280;15333;50.010;20.020;2023-03-26T03:37:34;97763.53;;;7.14;91.97
28008;BME280;15333;50.010;20.020;2023-03-26T03:40:35;97769.94;;;7.11;92.09
28008;BME280;15333;50.010;20.020;2023-03-26T03:43:37;97761.72;;;7.14;92.12
28008;BME280;15333;50.010;20.020;2023-03-26T03:46:49;97766.19;;;7.25;89.73
28008;BME280;15333;50.010;20.020;2023-03-26T03:49:54;97770.91;;;7.21;90.81
28008;BME280;15333;50.010;20.020;2023-03-26T03:52:57;97767.53;;;7.19;90.93
28008;BME280;15333;50.010;20.020;2023-03-26T03:55:59;97776.97;;;7.23;89.86
28008;BME280;15333;50.010;20.020;2023-03-26T03:59:21;97775.75;;;7.27;89.20
28008;BME280;15333;50.010;20.020;2023-03-26T04:02:26;97763.41;;;7.26;89.66
28008;BME280;15333;50.010;20.020;2023-03-26T04:05:33;97771.38;;;7.26;89.49
28008;BME280;15333;50.010;20.020;2023-03-26T04:08:34;97772.97;;;7.29;89.74
28008;BME280;15333;50.010;20.020;2023-03-26T04:11:39;97773.34;;;7.35;89.22
28008;BME280;15333;50.010;20.020;2023-03-26T04:14:53;97769.47;;;7.28;88.93
28008;BME280;15333;50.010;20.020;2023-03-26T04:17:54;97772.72;;;7.32;89.81
28008;BME280;15333;50.010;20.020;2023-03-26T04:20:56;97773.94;;;7.28;89.98
28008;BME280;15333;50.010;20.020;2023-03-26T04:24:03;97768.50;;;7.29;89.68
28008;BME280;15333;50.010;20.020;2023-03-26T04:27:26;97759.53;;;7.19;90.73
28008;BME280;15333;50.010;20.020;2023-03-26T04:30:38;97759.53;;;7.19;90.56
28008;BME280;15333;50.010;20.020;2023-03-26T04:34:22;97755.44;;;7.37;89.60
28008;BME280;15333;50.010;20.020;2023-03-26T04:37:38;97758.09;;;7.26;90.26
28008;BME280;15333;50.010;20.020;2023-03-26T04:40:46;97754.69;;;7.46;87.96
28008;BME280;15333;50.010;20.020;2023-03-26T04:44:02;97754.72;;;7.35;89.22
28008;BME280;15333;50.010;20.020;2023-03-26T04:47:19;97747.44;;;7.48;87.30
28008;BME280;15333;50.010;20.020;2023-03-26T04:50:21;97740.19;;;7.51;87.39
28008;BME280;15333;50.010;20.020;2023-03-26T04:53:23;97749.13;;;7.50;87.74
28008;BME280;15333;50.010;20.020;2023-03-26T04:59:48;97746.59;;;7.48;88.14
28008;BME280;15333;50.010;20.020;2023-03-26T05:02:49;97745.25;;;7.54;88.05
28008;BME280;15333;50.010;20.020;2023-03-26T05:05:53;97742.59;;;7.54;87.95
28008;BME280;15333;50.010;20.020;2023-03-26T05:08:54;97738.72;;;7.46;88.07
28008;BME280;15333;50.010;20.020;2023-03-26T05:12:16;97750.56;;;7.54;87.75
28008;BME280;15333;50.010;20.020;2023-03-26T05:15:52;97751.06;;;7.47;88.00
28008;BME280;15333;50.010;20.020;2023-03-26T05:19:07;97741.13;;;7.61;86.44
28008;BME280;15333;50.010;20.020;2023-03-26T05:22:09;97740.66;;;7.56;87.38
28008;BME280;15333;50.010;20.020;2023-03-26T05:25:16;97743.06;;;7.70;86.51
28008;BME280;15333;50.010;20.020;2023-03-26T05:28:18;97740.75;;;7.76;85.87
28008;BME280;15333;50.010;20.020;2023-03-26T05:31:38;97739.38;;;7.82;86.99
28008;BME280;15333;50.010;20.020;2023-03-26T05:34:40;97735.19;;;7.79;86.67
28008;BME280;15333;50.010;20.020;2023-03-26T05:37:42;97740.16;;;7.73;87.69
28008;BME280;15333;50.010;20.020;2023-03-26T05:40:44;97737.25;;;7.65;88.14
28008;BME280;15333;50.010;20.020;2023-03-26T05:43:50;97736.38;;;7.75;87.55
28008;BME280;15333;50.010;20.020;2023-03-26T05:46:55;97739.66;;;7.79;88.06
28008;BME280;15333;50.010;20.020;2023-03-26T05:50:00;97743.22;;;8.00;85.74
28008;BME280;15333;50.010;20.020;2023-03-26T05:53:01;97744.63;;;8.15;85.29
28008;BME280;15333;50.010;20.020;2023-03-26T05:56:34;97745.81;;;8.34;83.79
28008;BME280;15333;50.010;20.020;2023-03-26T05:59:54;97750.81;;;8.48;83.34
28008;BME280;15333;50.010;20.020;2023-03-26T06:03:14;97750.78;;;8.59;82.61
28008;BME280;15333;50.010;20.020;2023-03-26T06:06:36;97745.19;;;8.83;81.10
28008;BME280;15333;50.010;20.020;2023-03-26T06:09:38;97743.22;;;9.06;80.46
28008;BME280;15333;50.010;20.020;2023-03-26T06:12:40;97734.81;;;9.10;78.94
28008;BME280;15333;50.010;20.020;2023-03-26T06:15:42;97741.41;;;9.06;79.02
28008;BME280;15333;50.010;20.020;2023-03-26T06:18:55;97747.38;;;8.98;79.62
28008;BME280;15333;50.010;20.020;2023-03-26T06:22:21;97740.75;;;9.14;79.26
28008;BME280;15333;50.010;20.020;2023-03-26T06:25:45;97743.63;;;9.31;77.59
28008;BME280;15333;50.010;20.020;2023-03-26T06:29:13;97747.00;;;9.33;78.27
28008;BME280;15333;50.010;20.020;2023-03-26T06:32:29;97748.41;;;9.28;78.61
28008;BME280;15333;50.010;20.020;2023-03-26T06:35:53;97753.00;;;9.26;77.39
28008;BME280;15333;50.010;20.020;2023-03-26T06:38:54;97748.69;;;9.34;77.16
28008;BME280;15333;50.010;20.020;2023-03-26T06:41:56;97748.97;;;9.31;77.58
28008;BME280;15333;50.010;20.020;2023-03-26T06:45:16;97742.31;;;9.56;76.02
28008;BME280;15333;50.010;20.020;2023-03-26T06:48:39;97746.78;;;9.46;75.69
28008;BME280;15333;50.010;20.020;2023-03-26T06:51:59;97744.81;;;9.48;74.93
28008;BME280;15333;50.010;20.020;2023-03-26T06:55:16;97743.47;;;9.63;73.54
28008;BME280;15333;50.010;20.020;2023-03-26T06:58:29;97749.41;;;9.76;71.76
28008;BME280;15333;50.010;20.020;2023-03-26T07:01:30;97746.91;;;9.85;72.57
28008;BME280;15333;50.010;20.020;2023-03-26T07:04:50;97748.78;;;9.94;71.86
28008;BME280;15333;50.010;20.020;2023-03-26T07:08:29;97745.47;;;9.80;71.22
28008;BME280;15333;50.010;20.020;2023-03-26T07:11:50;97751.66;;;9.71;72.55
28008;BME280;15333;50.010;20.020;2023-03-26T07:15:00;97751.72;;;10.10;71.54
28008;BME280;15333;50.010;20.020;2023-03-26T07:18:21;97745.00;;;10.06;70.50
28008;BME280;15333;50.010;20.020;2023-03-26T07:21:24;97749.28;;;10.28;69.12
28008;BME280;15333;50.010;20.020;2023-03-26T07:24:26;97753.75;;;10.17;69.28
28008;BME280;15333;50.010;20.020;2023-03-26T07:31:36;97745.63;;;10.57;68.62
28008;BME280;15333;50.010;20.020;2023-03-26T07:39:13;97731.25;;;10.39;69.07
28008;BME280;15333;50.010;20.020;2023-03-26T07:43:06;97737.00;;;10.25;68.74
28008;BME280;15333;50.010;20.020;2023-03-26T07:46:31;97736.44;;;10.31;68.93
28008;BME280;15333;50.010;20.020;2023-03-26T07:50:00;97734.63;;;10.22;69.27
28008;BME280;15333;50.010;20.020;2023-03-26T07:53:22;97725.84;;;10.10;69.55
28008;BME280;15333;50.010;20.020;2023-03-26T07:56:54;97720.56;;;10.30;68.51
28008;BME280;15333;50.010;20.020;2023-03-26T08:00:36;97720.25;;;10.71;68.74
28008;BME280;15333;50.010;20.020;2023-03-26T08:04:06;97721.31;;;10.97;66.21
28008;BME280;15333;50.010;20.020;2023-03-26T08:08:24;97711.59;;;11.06;65.80
28008;BME280;15333;50.010;20.020;2023-03-26T08:11:13;97727.81;;;10.95;63.55
28008;BME280;15333;50.010;20.020;2023-03-26T08:17:39;97717.00;;;11.33;63.27
28008;BME280;15333;50.010;20.020;2023-03-26T08:20:48;97712.09;;;11.19;63.13
28008;BME280;15333;50.010;20.020;2023-03-26T08:24:17;97718.44;;;11.18;63.37
28008;BME280;15333;50.010;20.020;2023-03-26T08:27:31;97711.28;;;11.46;63.10
28008;BME280;15333;50.010;20.020;2023-03-26T08:30:37;97719.69;;;11.88;61.53
28008;BME280;15333;50.010;20.020;2023-03-26T08:33:38;97720.13;;;11.93;60.97
28008;BME280;15333;50.010;20.020;2023-03-26T08:36:40;97718.00;;;11.60;61.04
28008;BME280;15333;50.010;20.020;2023-03-26T08:39:41;97714.97;;;11.08;62.02
28008;BME280;15333;50.010;20.020;2023-03-26T08:43:08;97719.03;;;11.12;62.82
28008;BME280;15333;50.010;20.020;2023-03-26T08:49:41;97725.41;;;11.38;61.40
28008;BME280;15333;50.010;20.020;2023-03-26T09:10:44;97714.69;;;11.38;59.85
28008;BME280;15333;50.010;20.020;2023-03-26T09:14:00;97710.06;;;11.41;59.72
28008;BME280;15333;50.010;20.020;2023-03-26T09:50:12;97692.00;;;12.15;51.23
28008;BME280;15333;50.010;20.020;2023-03-26T09:56:57;97690.84;;;12.53;51.89
28008;BME280;15333;50.010;20.020;2023-03-26T10:00:21;97690.41;;;12.40;51.86
28008;BME280;15333;50.010;20.020;2023-03-26T10:06:39;97692.13;;;11.96;51.85
28008;BME280;15333;50.010;20.020;2023-03-26T10:10:10;97690.16;;;12.33;51.90
28008;BME280;15333;50.010;20.020;2023-03-26T10:13:36;97670.06;;;12.55;52.38
28008;BME280;15333;50.010;20.020;2023-03-26T10:27:34;97661.50;;;13.29;50.13
28008;BME280;15333;50.010;20.020;2023-03-26T10:34:23;97660.34;;;13.06;50.73
28008;BME280;15333;50.010;20.020;2023-03-26T10:45:02;97667.06;;;11.87;51.93
28008;BME280;15333;50.010;20.020;2023-03-26T10:51:35;97650.69;;;12.26;51.57
28008;BME280;15333;50.010;20.020;2023-03-26T10:54:52;97659.28;;;12.11;52.28
28008;BME280;15333;50.010;20.020;2023-03-26T10:57:58;97659.44;;;12.28;52.29
28008;BME280;15333;50.010;20.020;2023-03-26T11:01:03;97656.22;;;12.06;52.35
28008;BME280;15333;50.010;20.020;2023-03-26T11:07:43;97654.53;;;12.41;51.13
28008;BME280;15333;50.010;20.020;2023-03-26T11:14:19;97644.66;;;12.06;50.76
28008;BME280;15333;50.010;20.020;2023-03-26T11:17:48;97655.16;;;11.99;51.01
28008;BME280;15333;50.010;20.020;2023-03-26T11:21:03;97643.97;;;12.22;50.61
28008;BME280;15333;50.010;20.020;2023-03-26T11:33:49;97627.44;;;13.04;48.55
28008;BME280;15333;50.010;20.020;2023-03-26T11:36:53;97623.25;;;13.09;48.53
28008;BME280;15333;50.010;20.020;2023-03-26T11:39:56;97627.88;;;12.91;48.06
28008;BME280;15333;50.010;20.020;2023-03-26T11:43:05;97618.97;;;12.90;48.62
28008;BME280;15333;50.010;20.020;2023-03-26T11:46:10;97618.56;;;12.77;49.04
28008;BME280;15333;50.010;20.020;2023-03-26T11:49:16;97614.75;;;12.62;48.89
28008;BME280;15333;50.010;20.020;2023-03-26T11:52:19;97611.94;;;12.64;47.97
28008;BME280;15333;50.010;20.020;2023-03-26T11:55:20;97610.34;;;12.53;49.16
28008;BME280;15333;50.010;20.020;2023-03-26T11:58:30;97608.34;;;12.55;48.75
28008;BME280;15333;50.010;20.020;2023-03-26T12:02:14;97606.16;;;12.59;48.67
28008;BME280;15333;50.010;20.020;2023-03-26T12:05:17;97600.53;;;12.95;48.14
28008;BME280;15333;50.010;20.020;2023-03-26T12:08:30;97603.56;;;13.01;47.63
28008;BME280;15333;50.010;20.020;2023-03-26T12:11:32;97597.63;;;13.15;47.85
28008;BME280;15333;50.010;20.020;2023-03-26T12:14:35;97597.00;;;13.21;47.56
28008;BME280;15333;50.010;20.020;2023-03-26T12:17:41;97593.31;;;13.30;47.04
28008;BME280;15333;50.010;20.020;2023-03-26T12:20:43;97593.78;;;13.17;47.12
28008;BME280;15333;50.010;20.020;2023-03-26T12:23:59;97591.78;;;13.19;47.72
28008;BME280;15333;50.010;20.020;2023-03-26T12:27:23;97589.47;;;12.99;47.53
28008;BME280;15333;50.010;20.020;2023-03-26T12:30:27;97595.50;;;12.92;47.60
28008;BME280;15333;50.010;20.020;2023-03-26T12:33:32;97591.78;;;12.93;48.25
28008;BME280;15333;50.010;20.020;2023-03-26T12:36:38;97587.59;;;12.65;48.71
28008;BME280;15333;50.010;20.020;2023-03-26T12:39:41;97571.59;;;12.81;48.69
28008;BME280;15333;50.010;20.020;2023-03-26T12:42:50;97577.78;;;12.82;49.58
28008;BME280;15333;50.010;20.020;2023-03-26T12:45:55;97569.09;;;13.14;48.41
28008;BME280;15333;50.010;20.020;2023-03-26T12:49:00;97572.81;;;13.21;48.93
28008;BME280;15333;50.010;20.020;2023-03-26T13:05:28;97564.69;;;12.53;51.51
28008;BME280;15333;50.010;20.020;2023-03-26T13:08:53;97559.69;;;12.58;51.84
28008;BME280;15333;50.010;20.020;2023-03-26T13:21:44;97531.59;;;12.70;51.74
28008;BME280;15333;50.010;20.020;2023-03-26T13:28:47;97525.25;;;12.45;51.94
28008;BME280;15333;50.010;20.020;2023-03-26T13:32:10;97519.59;;;12.31;51.68
28008;BME280;15333;50.010;20.020;2023-03-26T13:35:27;97520.56;;;12.22;52.13
28008;BME280;15333;50.010;20.020;2023-03-26T13:45:43;97503.16;;;12.85;50.12
28008;BME280;15333;50.010;20.020;2023-03-26T13:52:26;97502.63;;;12.82;49.47
28008;BME280;15333;50.010;20.020;2023-03-26T13:55:33;97495.91;;;12.78;50.08
28008;BME280;15333;50.010;20.020;2023-03-26T13:58:49;97499.13;;;12.89;49.10
28008;BME280;15333;50.010;20.020;2023-03-26T14:01:58;97484.00;;;12.88;48.88
28008;BME280;15333;50.010;20.020;2023-03-26T14:05:10;97482.66;;;12.84;48.85
28008;BME280;15333;50.010;20.020;2023-03-26T14:08:37;97487.41;;;12.99;49.05
28008;BME280;15333;50.010;20.020;2023-03-26T14:11:49;97483.97;;;13.22;48.62
28008;BME280;15333;50.010;20.020;2023-03-26T14:22:37;97490.00;;;12.74;49.77
28008;BME280;15333;50.010;20.020;2023-03-26T14:35:45;97482.28;;;12.79;48.76
28008;BME280;15333;50.010;20.020;2023-03-26T14:48:41;97486.91;;;12.61;48.63
28008;BME280;15333;50.010;20.020;2023-03-26T14:51:58;97479.91;;;12.68;48.65
28008;BME280;15333;50.010;20.020;2023-03-26T14:55:03;97488.59;;;12.62;49.01
28008;BME280;15333;50.010;20.020;2023-03-26T15:12:07;97480.81;;;12.51;50.40
28008;BME280;15333;50.010;20.020;2023-03-26T15:16:15;97473.50;;;12.61;50.44
28008;BME280;15333;50.010;20.020;2023-03-26T15:26:19;97465.78;;;12.66;49.61
28008;BME280;15333;50.010;20.020;2023-03-26T15:30:04;97461.81;;;12.70;49.79
28008;BME280;15333;50.010;20.020;2023-03-26T15:43:25;97448.03;;;12.73;49.29
28008;BME280;15333;50.010;20.020;2023-03-26T15:50:14;97456.00;;;12.49;50.12
28008;BME280;15333;50.010;20.020;2023-03-26T16:03:27;97432.69;;;12.49;47.99
28008;BME280;15333;50.010;20.020;2023-03-26T16:16:20;97419.28;;;12.57;46.95
28008;BME280;15333;50.010;20.020;2023-03-26T16:19:30;97422.47;;;12.53;46.78
28008;BME280;15333;50.010;20.020;2023-03-26T16:22:40;97429.44;;;12.38;47.24
28008;BME280;15333;50.010;20.020;2023-03-26T16:26:34;97425.22;;;12.27;47.92
28008;BME280;15333;50.010;20.020;2023-03-26T16:36:50;97423.81;;;11.89;49.14
28008;BME280;15333;50.010;20.020;2023-03-26T16:39:52;97417.38;;;11.82;49.02
28008;BME280;15333;50.010;20.020;2023-03-26T16:43:40;97431.03;;;11.71;49.41
28008;BME280;15333;50.010;20.020;2023-03-26T16:47:01;97426.22;;;11.57;49.97
28008;BME280;15333;50.010;20.020;2023-03-26T16:56:29;97421.72;;;11.04;51.49
28008;BME280;15333;50.010;20.020;2023-03-26T17:06:30;97417.41;;;10.76;52.17
28008;BME280;15333;50.010;20.020;2023-03-26T17:09:44;97420.59;;;10.62;53.03
28008;BME280;15333;50.010;20.020;2023-03-26T17:16:47;97423.81;;;10.38;53.66
28008;BME280;15333;50.010;20.020;2023-03-26T17:31:21;97425.47;;;9.55;56.31
28008;BME280;15333;50.010;20.020;2023-03-26T17:37:48;97427.44;;;9.24;58.03
28008;BME280;15333;50.010;20.020;2023-03-26T17:40:53;97418.59;;;9.04;58.51
28008;BME280;15333;50.010;20.020;2023-03-26T17:43:55;97421.28;;;9.14;59.75
28008;BME280;15333;50.010;20.020;2023-03-26T17:46:58;97419.19;;;9.37;58.58
28008;BME280;15333;50.010;20.020;2023-03-26T17:50:13;97416.22;;;9.30;58.76
28008;BME280;15333;50.010;20.020;2023-03-26T17:56:25;97415.09;;;9.33;57.91
28008;BME280;15333;50.010;20.020;2023-03-26T17:59:28;97428.16;;;9.36;57.72
28008;BME280;15333;50.010;20.020;2023-03-26T18:02:38;97421.41;;;9.32;57.14
28008;BME280;15333;50.010;20.020;2023-03-26T18:05:42;97421.00;;;9.27;56.99
28008;BME280;15333;50.010;20.020;2023-03-26T18:09:00;97429.97;;;9.26;57.52
28008;BME280;15333;50.010;20.020;2023-03-26T18:18:52;97428.03;;;9.28;57.77
28008;BME280;15333;50.010;20.020;2023-03-26T18:21:58;97416.50;;;9.37;57.96
28008;BME280;15333;50.010;20.020;2023-03-26T18:25:03;97419.03;;;9.19;58.12
28008;BME280;15333;50.010;20.020;2023-03-26T18:28:04;97426.03;;;9.39;57.51
28008;BME280;15333;50.010;20.020;2023-03-26T18:31:15;97427.19;;;9.37;57.52
28008;BME280;15333;50.010;20.020;2023-03-26T18:34:17;97409.88;;;9.41;57.17
28008;BME280;15333;50.010;20.020;2023-03-26T18:37:22;97408.06;;;9.51;56.61
28008;BME280;15333;50.010;20.020;2023-03-26T18:40:28;97407.16;;;9.60;56.70
28008;BME280;15333;50.010;20.020;2023-03-26T18:43:31;97411.78;;;9.77;55.72
28008;BME280;15333;50.010;20.020;2023-03-26T18:46:33;97407.16;;;9.79;55.95
28008;BME280;15333;50.010;20.020;2023-03-26T18:49:34;97400.38;;;9.75;56.47
28008;BME280;15333;50.010;20.020;2023-03-26T18:52:36;97396.47;;;9.79;56.23
28008;BME280;15333;50.010;20.020;2023-03-26T18:55:37;97403.59;;;9.89;55.91
28008;BME280;15333;50.010;20.020;2023-03-26T18:58:39;97406.09;;;10.00;55.77
28008;BME280;15333;50.010;20.020;2023-03-26T19:01:41;97416.59;;;10.11;55.35
28008;BME280;15333;50.010;20.020;2023-03-26T19:04:45;97412.94;;;10.12;55.21
28008;BME280;15333;50.010;20.020;2023-03-26T19:07:47;97411.56;;;10.08;55.22
28008;BME280;15333;50.010;20.020;2023-03-26T19:10:53;97413.22;;;10.09;55.59
28008;BME280;15333;50.010;20.020;2023-03-26T19:14:04;97401.84;;;10.07;55.27
28008;BME280;15333;50.010;20.020;2023-03-26T19:17:06;97396.50;;;10.07;55.51
28008;BME280;15333;50.010;20.020;2023-03-26T19:20:17;97394.94;;;10.14;55.26
28008;BME280;15333;50.010;20.020;2023-03-26T19:23:21;97389.53;;;10.24;55.49
28008;BME280;15333;50.010;20.020;2023-03-26T19:26:25;97385.03;;;10.24;55.85
28008;BME280;15333;50.010;20.020;2023-03-26T19:29:30;97389.28;;;10.17;55.77
28008;BME280;15333;50.010;20.020;2023-03-26T19:32:32;97390.09;;;10.27;55.69
28008;BME280;15333;50.010;20.020;2023-03-26T19:35:38;97390.56;;;10.23;55.91
28008;BME280;15333;50.010;20.020;2023-03-26T19:38:44;97387.03;;;10.22;55.55
28008;BME280;15333;50.010;20.020;2023-03-26T19:41:50;97389.28;;;10.17;56.03
28008;BME280;15333;50.010;20.020;2023-03-26T19:44:53;97381.38;;;10.25;56.52
28008;BME280;15333;50.010;20.020;2023-03-26T19:47:55;97387.56;;;10.26;56.32
28008;BME280;15333;50.010;20.020;2023-03-26T19:51:02;97388.69;;;10.23;56.25
28008;BME280;15333;50.010;20.020;2023-03-26T19:54:14;97389.84;;;10.11;57.35
28008;BME280;15333;50.010;20.020;2023-03-26T19:57:16;97391.53;;;10.12;58.15
28008;BME280;15333;50.010;20.020;2023-03-26T20:00:17;97391.28;;;10.05;58.37
28008;BME280;15333;50.010;20.020;2023-03-26T20:03:28;97401.63;;;9.91;60.11
28008;BME280;15333;50.010;20.020;2023-03-26T20:06:29;97393.66;;;9.71;61.88
28008;BME280;15333;50.010;20.020;2023-03-26T20:09:33;97393.41;;;9.55;64.93
28008;BME280;15333;50.010;20.020;2023-03-26T20:12:35;97401.88;;;9.41;67.05
28008;BME280;15333;50.010;20.020;2023-03-26T20:15:37;97401.88;;;9.31;68.52
28008;BME280;15333;50.010;20.020;2023-03-26T20:18:38;97400.22;;;9.21;70.14
28008;BME280;15333;50.010;20.020;2023-03-26T20:21:39;97399.81;;;9.16;71.84
28008;BME280;15333;50.010;20.020;2023-03-26T20:24:41;97398.94;;;9.06;73.67
28008;BME280;15333;50.010;20.020;2023-03-26T20:27:45;97400.34;;;8.90;76.98
28008;BME280;15333;50.010;20.020;2023-03-26T20:30:47;97401.88;;;8.83;78.75
28008;BME280;15333;50.010;20.020;2023-03-26T20:33:49;97398.22;;;8.65;81.28
28008;BME280;15333;50.010;20.020;2023-03-26T20:36:51;97397.78;;;8.60;83.57
28008;BME280;15333;50.010;20.020;2023-03-26T20:39:56;97387.50;;;8.46;86.79
28008;BME280;15333;50.010;20.020;2023-03-26T20:42:57;97393.34;;;8.30;88.37
28008;BME280;15333;50.010;20.020;2023-03-26T20:45:59;97379.81;;;8.12;90.90
28008;BME280;15333;50.010;20.020;2023-03-26T20:49:00;97376.66;;;7.98;95.29
28008;BME280;15333;50.010;20.020;2023-03-26T20:52:01;97374.00;;;7.88;98.43
28008;BME280;15333;50.010;20.020;2023-03-26T20:55:02;97372.56;;;7.84;100.00
28008;BME280;15333;50.010;20.020;2023-03-26T20:58:08;97369.88;;;7.84;100.00
28008;BME280;15333;50.010;20.020;2023-03-26T21:01:12;97367.63;;;7.79;100.00
28008;BME280;15333;50.010;20.020;2023-03-26T21:04:15;97363.94;;;7.71;100.00
28008;BME280;15333;50.010;20.020;2023-03-26T21:07:17;97350.75;;;7.60;100.00
28008;BME280;15333;50.010;20.020;2023-03-26T21:10:20;97345.13;;;7.63;100.00
28008;BME280;15333;50.010;20.020;2023-03-26T21:16:37;97336.09;;;7.44;100.00
28008;BME280;15333;50.010;20.020;2023-03-26T21:19:38;97333.59;;;7.53;100.00
28008;BME280;15333;50.010;20.020;2023-03-26T21:22:45;97336.63;;;7.38;100.00
28008;BME280;15333;50.010;20.020;2023-03-26T21:26:05;97330.44;;;7.38;100.00
28008;BME280;15333;50.010;20.020;2023-03-26T21:29:09;97321.16;;;7.32;100.00
28008;BME280;15333;50.010;20.020;2023-03-26T21:32:11;97316.44;;;7.36;100.00
28008;BME280;15333;50.010;20.020;2023-03-26T21:35:14;97325.13;;;7.38;100.00
28008;BME280;15333;50.010;20.020;2023-03-26T21:38:16;97322.00;;;7.33;100.00